sensor_id;sensor_type;location;lat;lon;timestamp;pressure;altitude;pressure_sealevel;temperature;humidity
66385;BME280;53426;55.872;37.462;2022-07-23T00:44:38;99213.31;;;17.43;67.70
66385;BME280;53426;55.872;37.462;2022-07-23T00:47:04;99213.19;;;17.36;68.20
66385;BME280;53426;55.872;37.462;2022-07-23T00:49:32;99215.03;;;17.36;67.90
66385;BME280;53426;55.872;37.462;2022-07-23T00:52:00;99225.41;;;17.39;68.12
66385;BME280;53426;55.872;37.462;2022-07-23T00:54:27;99230.94;;;17.37;68.23
66385;BME280;53426;55.872;37.462;2022-07-23T00:56:53;99225.47;;;17.31;68.25
66385;BME280;53426;55.872;37.462;2022-07-23T00:59:20;99218.97;;;17.25;68.16
66385;BME280;53426;55.872;37.462;2022-07-23T01:01:47;99225.28;;;17.32;68.25
66385;BME280;53426;55.872;37.462;2022-07-23T01:04:15;99222.50;;;17.26;68.34
66385;BME280;53426;55.872;37.462;2022-07-23T01:06:42;99230.50;;;17.26;68.61
66385;BME280;53426;55.872;37.462;2022-07-23T01:09:09;99229.88;;;17.24;68.73
66385;BME280;53426;55.872;37.462;2022-07-23T01:11:36;99222.50;;;17.26;68.58
66385;BME280;53426;55.872;37.462;2022-07-23T01:14:14;99237.00;;;17.31;68.76
66385;BME280;53426;55.872;37.462;2022-07-23T01:16:42;99230.81;;;17.31;68.54
66385;BME280;53426;55.872;37.462;2022-07-23T01:19:08;99233.66;;;17.29;68.64
66385;BME280;53426;55.872;37.462;2022-07-23T01:21:43;99230.50;;;17.26;68.83
66385;BME280;53426;55.872;37.462;2022-07-23T01:24:10;99231.53;;;17.25;68.87
66385;BME280;53426;55.872;37.462;2022-07-23T01:26:44;99216.84;;;17.21;68.98
66385;BME280;53426;55.872;37.462;2022-07-23T01:29:21;99230.38;;;17.19;68.89
66385;BME280;53426;55.872;37.462;2022-07-23T01:31:48;99221.91;;;17.15;69.10
66385;BME280;53426;55.872;37.462;2022-07-23T01:34:14;99214.25;;;17.12;69.33
66385;BME280;53426;55.872;37.462;2022-07-23T01:36:40;99216.72;;;17.14;69.13
66385;BME280;53426;55.872;37.462;2022-07-23T01:39:08;99208.78;;;17.06;69.73
66385;BME280;53426;55.872;37.462;2022-07-23T01:41:34;99213.91;;;17.07;69.50
66385;BME280;53426;55.872;37.462;2022-07-23T01:44:00;99218.94;;;17.10;69.75
66385;BME280;53426;55.872;37.462;2022-07-23T01:46:28;99214.13;;;17.06;69.77
66385;BME280;53426;55.872;37.462;2022-07-23T01:48:54;99211.91;;;17.09;69.68
66385;BME280;53426;55.872;37.462;2022-07-23T01:51:38;99210.25;;;17.08;69.74
66385;BME280;53426;55.872;37.462;2022-07-23T01:54:29;99217.56;;;17.14;69.75
66385;BME280;53426;55.872;37.462;2022-07-23T01:56:57;99217.38;;;17.16;70.08
66385;BME280;53426;55.872;37.462;2022-07-23T01:59:23;99224.41;;;17.17;70.02
66385;BME280;53426;55.872;37.462;2022-07-23T02:01:50;99219.53;;;17.21;69.80
66385;BME280;53426;55.872;37.462;2022-07-23T02:04:18;99218.34;;;17.23;69.92
66385;BME280;53426;55.872;37.462;2022-07-23T02:06:44;99205.47;;;17.19;69.81
66385;BME280;53426;55.872;37.462;2022-07-23T02:09:10;99217.25;;;17.32;69.87
66385;BME280;53426;55.872;37.462;2022-07-23T02:11:37;99213.38;;;17.35;69.42
66385;BME280;53426;55.872;37.462;2022-07-23T02:14:03;99215.53;;;17.39;69.77
66385;BME280;53426;55.872;37.462;2022-07-23T02:16:29;99211.34;;;17.37;69.44
66385;BME280;53426;55.872;37.462;2022-07-23T02:19:00;99219.34;;;17.45;69.52
66385;BME280;53426;55.872;37.462;2022-07-23T02:21:26;99208.34;;;17.40;69.17
66385;BME280;53426;55.872;37.462;2022-07-23T02:23:52;99212.94;;;17.46;69.11
66385;BME280;53426;55.872;37.462;2022-07-23T02:26:19;99220.47;;;17.50;69.13
66385;BME280;53426;55.872;37.462;2022-07-23T02:28:45;99224.44;;;17.54;68.84
66385;BME280;53426;55.872;37.462;2022-07-23T02:31:11;99210.22;;;17.54;69.10
66385;BME280;53426;55.872;37.462;2022-07-23T02:33:37;99209.00;;;17.56;69.13
66385;BME280;53426;55.872;37.462;2022-07-23T02:36:04;99219.50;;;17.66;69.00
66385;BME280;53426;55.872;37.462;2022-07-23T02:38:30;99220.13;;;17.68;68.91
66385;BME280;53426;55.872;37.462;2022-07-23T02:40:57;99225.59;;;17.75;68.63
66385;BME280;53426;55.872;37.462;2022-07-23T02:43:22;99222.22;;;17.81;68.89
66385;BME280;53426;55.872;37.462;2022-07-23T02:45:48;99225.16;;;17.86;68.54
66385;BME280;53426;55.872;37.462;2022-07-23T02:48:16;99217.59;;;17.89;68.36
66385;BME280;53426;55.872;37.462;2022-07-23T02:50:44;99218.53;;;17.96;68.18
66385;BME280;53426;55.872;37.462;2022-07-23T02:53:13;99226.28;;;18.06;68.21
66385;BME280;53426;55.872;37.462;2022-07-23T02:55:40;99224.53;;;18.13;67.55
66385;BME280;53426;55.872;37.462;2022-07-23T02:58:07;99224.81;;;18.18;67.83
66385;BME280;53426;55.872;37.462;2022-07-23T03:00:35;99228.59;;;18.24;67.70
66385;BME280;53426;55.872;37.462;2022-07-23T03:13:38;99234.53;;;20.19;62.33
66385;BME280;53426;55.872;37.462;2022-07-23T03:16:04;99228.50;;;20.99;59.98
66385;BME280;53426;55.872;37.462;2022-07-23T03:18:30;99237.13;;;21.68;58.20
66385;BME280;53426;55.872;37.462;2022-07-23T03:20:56;99236.03;;;22.35;56.02
66385;BME280;53426;55.872;37.462;2022-07-23T03:23:22;99238.72;;;22.92;54.52
66385;BME280;53426;55.872;37.462;2022-07-23T03:25:48;99230.75;;;23.42;52.44
66385;BME280;53426;55.872;37.462;2022-07-23T03:28:15;99238.91;;;23.92;51.09
66385;BME280;53426;55.872;37.462;2022-07-23T03:30:42;99237.19;;;24.40;49.72
66385;BME280;53426;55.872;37.462;2022-07-23T03:33:08;99221.84;;;24.71;48.74
66385;BME280;53426;55.872;37.462;2022-07-23T03:35:34;99237.34;;;25.12;47.75
66385;BME280;53426;55.872;37.462;2022-07-23T03:38:21;99230.53;;;25.51;47.06
66385;BME280;53426;55.872;37.462;2022-07-23T03:40:49;99234.84;;;25.81;45.66
66385;BME280;53426;55.872;37.462;2022-07-23T03:43:15;99230.03;;;25.83;45.44
66385;BME280;53426;55.872;37.462;2022-07-23T03:45:42;99227.19;;;26.13;45.01
66385;BME280;53426;55.872;37.462;2022-07-23T03:48:08;99228.22;;;26.59;44.32
66385;BME280;53426;55.872;37.462;2022-07-23T03:50:34;99220.41;;;27.02;43.23
66385;BME280;53426;55.872;37.462;2022-07-23T03:53:00;99228.81;;;27.46;42.24
66385;BME280;53426;55.872;37.462;2022-07-23T03:55:26;99233.72;;;27.77;41.63
66385;BME280;53426;55.872;37.462;2022-07-23T03:57:51;99232.41;;;27.97;40.75
66385;BME280;53426;55.872;37.462;2022-07-23T04:00:17;99237.94;;;28.18;40.65
66385;BME280;53426;55.872;37.462;2022-07-23T04:02:45;99237.91;;;28.35;39.73
66385;BME280;53426;55.872;37.462;2022-07-23T04:05:12;99228.63;;;28.14;40.07
66385;BME280;53426;55.872;37.462;2022-07-23T04:07:39;99235.81;;;28.42;39.70
66385;BME280;53426;55.872;37.462;2022-07-23T04:10:06;99236.41;;;28.66;39.35
66385;BME280;53426;55.872;37.462;2022-07-23T04:12:34;99231.19;;;29.08;38.34
66385;BME280;53426;55.872;37.462;2022-07-23T04:15:04;99241.72;;;29.48;37.99
66385;BME280;53426;55.872;37.462;2022-07-23T04:17:31;99246.59;;;29.73;37.28
66385;BME280;53426;55.872;37.462;2022-07-23T04:19:57;99238.94;;;30.02;36.75
66385;BME280;53426;55.872;37.462;2022-07-23T04:22:30;99240.38;;;30.56;36.10
66385;BME280;53426;55.872;37.462;2022-07-23T04:24:56;99243.22;;;30.77;35.50
66385;BME280;53426;55.872;37.462;2022-07-23T04:27:21;99248.00;;;31.11;34.64
66385;BME280;53426;55.872;37.462;2022-07-23T04:29:49;99237.66;;;31.39;34.13
66385;BME280;53426;55.872;37.462;2022-07-23T04:32:15;99239.34;;;31.70;33.78
66385;BME280;53426;55.872;37.462;2022-07-23T04:34:41;99242.34;;;32.24;33.00
66385;BME280;53426;55.872;37.462;2022-07-23T04:37:07;99239.06;;;32.27;32.46
66385;BME280;53426;55.872;37.462;2022-07-23T04:39:35;99236.84;;;32.39;32.43
66385;BME280;53426;55.872;37.462;2022-07-23T04:42:01;99236.31;;;32.22;32.59
66385;BME280;53426;55.872;37.462;2022-07-23T04:44:29;99240.50;;;32.84;31.62
66385;BME280;53426;55.872;37.462;2022-07-23T04:46:55;99231.63;;;33.07;31.28
66385;BME280;53426;55.872;37.462;2022-07-23T04:49:22;99237.72;;;33.48;30.16
66385;BME280;53426;55.872;37.462;2022-07-23T04:51:48;99238.47;;;33.59;30.22
66385;BME280;53426;55.872;37.462;2022-07-23T04:54:14;99224.78;;;33.10;30.82
66385;BME280;53426;55.872;37.462;2022-07-23T04:56:40;99234.47;;;32.92;30.68
66385;BME280;53426;55.872;37.462;2022-07-23T04:59:08;99223.94;;;33.53;30.03
66385;BME280;53426;55.872;37.462;2022-07-23T05:01:33;99225.56;;;33.20;30.47
66385;BME280;53426;55.872;37.462;2022-07-23T05:03:59;99214.88;;;33.92;29.18
66385;BME280;53426;55.872;37.462;2022-07-23T05:06:29;99218.56;;;34.35;28.76
66385;BME280;53426;55.872;37.462;2022-07-23T05:12:05;99224.91;;;35.58;27.61
66385;BME280;53426;55.872;37.462;2022-07-23T05:14:33;99225.16;;;35.43;27.08
66385;BME280;53426;55.872;37.462;2022-07-23T05:17:00;99220.94;;;35.64;27.73
66385;BME280;53426;55.872;37.462;2022-07-23T05:19:26;99223.13;;;35.99;27.13
66385;BME280;53426;55.872;37.462;2022-07-23T05:21:52;99218.81;;;36.39;26.27
66385;BME280;53426;55.872;37.462;2022-07-23T05:24:18;99214.81;;;37.00;25.50
66385;BME280;53426;55.872;37.462;2022-07-23T05:26:47;99222.78;;;37.02;25.53
66385;BME280;53426;55.872;37.462;2022-07-23T05:29:13;99221.41;;;36.77;25.43
66385;BME280;53426;55.872;37.462;2022-07-23T05:31:39;99220.28;;;36.64;25.77
66385;BME280;53426;55.872;37.462;2022-07-23T05:34:05;99220.84;;;36.34;26.37
66385;BME280;53426;55.872;37.462;2022-07-23T05:36:32;99227.53;;;36.87;25.89
66385;BME280;53426;55.872;37.462;2022-07-23T05:39:01;99208.59;;;36.54;25.87
66385;BME280;53426;55.872;37.462;2022-07-23T05:41:29;99211.50;;;36.02;26.76
66385;BME280;53426;55.872;37.462;2022-07-23T05:43:55;99207.16;;;36.56;26.30
66385;BME280;53426;55.872;37.462;2022-07-23T05:46:21;99213.81;;;36.82;25.62
66385;BME280;53426;55.872;37.462;2022-07-23T05:48:53;99214.81;;;37.00;25.19
66385;BME280;53426;55.872;37.462;2022-07-23T05:51:41;99185.56;;;36.99;25.23
66385;BME280;53426;55.872;37.462;2022-07-23T06:07:44;99197.75;;;36.84;25.13
66385;BME280;53426;55.872;37.462;2022-07-23T06:10:17;99181.53;;;36.56;25.07
66385;BME280;53426;55.872;37.462;2022-07-23T06:12:45;99201.88;;;36.73;24.97
66385;BME280;53426;55.872;37.462;2022-07-23T06:15:14;99206.69;;;37.31;24.85
66385;BME280;53426;55.872;37.462;2022-07-23T06:17:41;99203.25;;;37.70;24.46
66385;BME280;53426;55.872;37.462;2022-07-23T06:20:08;99202.16;;;38.33;23.62
66385;BME280;53426;55.872;37.462;2022-07-23T06:22:37;99189.13;;;38.81;23.24
66385;BME280;53426;55.872;37.462;2022-07-23T06:25:03;99198.56;;;38.80;23.06
66385;BME280;53426;55.872;37.462;2022-07-23T06:27:29;99198.09;;;38.78;22.88
66385;BME280;53426;55.872;37.462;2022-07-23T06:29:55;99191.38;;;38.79;22.83
66385;BME280;53426;55.872;37.462;2022-07-23T06:32:29;99183.28;;;38.83;22.57
66385;BME280;53426;55.872;37.462;2022-07-23T06:36:01;99167.53;;;39.35;22.05
66385;BME280;53426;55.872;37.462;2022-07-23T06:38:52;99193.13;;;40.30;22.74
66385;BME280;53426;55.872;37.462;2022-07-23T06:42:10;99173.69;;;39.75;21.04
66385;BME280;53426;55.872;37.462;2022-07-23T06:45:31;99151.47;;;38.06;22.52
66385;BME280;53426;55.872;37.462;2022-07-23T06:52:17;99179.56;;;38.96;22.60
66385;BME280;53426;55.872;37.462;2022-07-23T06:54:43;99189.19;;;39.33;22.07
66385;BME280;53426;55.872;37.462;2022-07-23T06:57:09;99174.38;;;39.55;21.53
66385;BME280;53426;55.872;37.462;2022-07-23T06:59:35;99193.50;;;40.20;21.49
66385;BME280;53426;55.872;37.462;2022-07-23T07:02:04;99183.81;;;39.71;21.82
66385;BME280;53426;55.872;37.462;2022-07-23T07:04:31;99168.97;;;39.58;21.57
66385;BME280;53426;55.872;37.462;2022-07-23T07:06:57;99185.91;;;39.91;21.36
66385;BME280;53426;55.872;37.462;2022-07-23T07:09:24;99194.84;;;40.43;21.04
66385;BME280;53426;55.872;37.462;2022-07-23T07:21:03;99141.72;;;39.86;20.39
66385;BME280;53426;55.872;37.462;2022-07-23T07:23:57;99184.53;;;40.52;21.19
66385;BME280;53426;55.872;37.462;2022-07-23T07:26:23;99197.22;;;39.43;21.02
66385;BME280;53426;55.872;37.462;2022-07-23T07:28:49;99173.41;;;40.14;20.68
66385;BME280;53426;55.872;37.462;2022-07-23T07:31:15;99178.53;;;40.42;19.83
66385;BME280;53426;55.872;37.462;2022-07-23T07:33:41;99156.59;;;39.56;21.01
66385;BME280;53426;55.872;37.462;2022-07-23T07:40:26;99149.03;;;40.67;19.82
66385;BME280;53426;55.872;37.462;2022-07-23T07:42:53;99186.72;;;41.59;19.54
66385;BME280;53426;55.872;37.462;2022-07-23T07:45:21;99182.69;;;41.90;19.04
66385;BME280;53426;55.872;37.462;2022-07-23T07:47:47;99183.25;;;40.03;20.54
66385;BME280;53426;55.872;37.462;2022-07-23T07:50:17;99184.25;;;40.75;19.29
66385;BME280;53426;55.872;37.462;2022-07-23T07:52:46;99185.25;;;40.41;19.82
66385;BME280;53426;55.872;37.462;2022-07-23T07:55:12;99177.66;;;40.50;19.42
66385;BME280;53426;55.872;37.462;2022-07-23T07:57:38;99191.59;;;41.00;18.94
66385;BME280;53426;55.872;37.462;2022-07-23T08:00:06;99164.41;;;40.26;19.68
66385;BME280;53426;55.872;37.462;2022-07-23T08:02:44;99179.91;;;38.95;20.99
66385;BME280;53426;55.872;37.462;2022-07-23T08:05:20;99176.66;;;39.36;20.08
66385;BME280;53426;55.872;37.462;2022-07-23T08:08:12;99156.28;;;39.14;20.43
66385;BME280;53426;55.872;37.462;2022-07-23T08:10:40;99176.91;;;40.70;19.13
66385;BME280;53426;55.872;37.462;2022-07-23T08:13:06;99144.56;;;41.36;18.82
66385;BME280;53426;55.872;37.462;2022-07-23T08:15:32;99185.69;;;41.64;18.35
66385;BME280;53426;55.872;37.462;2022-07-23T08:17:58;99185.16;;;41.83;17.98
66385;BME280;53426;55.872;37.462;2022-07-23T08:20:25;99176.91;;;40.70;18.96
66385;BME280;53426;55.872;37.462;2022-07-23T08:25:27;99182.44;;;41.00;18.60
66385;BME280;53426;55.872;37.462;2022-07-23T08:27:53;99176.50;;;41.10;18.62
66385;BME280;53426;55.872;37.462;2022-07-23T08:30:20;99139.69;;;40.71;18.64
66385;BME280;53426;55.872;37.462;2022-07-23T08:32:56;99168.19;;;41.63;18.48
66385;BME280;53426;55.872;37.462;2022-07-23T08:35:28;99167.06;;;41.44;18.64
66385;BME280;53426;55.872;37.462;2022-07-23T08:37:55;99168.78;;;41.90;18.19
66385;BME280;53426;55.872;37.462;2022-07-23T08:40:22;99153.97;;;42.58;17.19
66385;BME280;53426;55.872;37.462;2022-07-23T08:42:50;99169.84;;;42.46;17.94
66385;BME280;53426;55.872;37.462;2022-07-23T08:45:19;99151.66;;;42.48;16.74
66385;BME280;53426;55.872;37.462;2022-07-23T08:47:54;99163.53;;;43.50;16.67
66385;BME280;53426;55.872;37.462;2022-07-23T08:50:21;99153.75;;;43.44;16.95
66385;BME280;53426;55.872;37.462;2022-07-23T08:52:50;99144.53;;;44.46;15.60
66385;BME280;53426;55.872;37.462;2022-07-23T08:55:18;99157.75;;;44.49;15.94
66385;BME280;53426;55.872;37.462;2022-07-23T08:57:49;99160.94;;;44.32;15.70
66385;BME280;53426;55.872;37.462;2022-07-23T09:00:16;99131.53;;;44.69;15.67
66385;BME280;53426;55.872;37.462;2022-07-23T09:02:43;99152.09;;;45.34;16.03
66385;BME280;53426;55.872;37.462;2022-07-23T09:05:13;99158.22;;;45.21;15.11
66385;BME280;53426;55.872;37.462;2022-07-23T09:08:08;99153.25;;;44.60;16.74
66385;BME280;53426;55.872;37.462;2022-07-23T09:13:40;99148.91;;;41.25;19.02
66385;BME280;53426;55.872;37.462;2022-07-23T09:16:16;99141.41;;;39.88;20.71
66385;BME280;53426;55.872;37.462;2022-07-23T09:18:47;99114.72;;;38.71;21.44
66385;BME280;53426;55.872;37.462;2022-07-23T09:21:14;99137.84;;;37.88;21.94
66385;BME280;53426;55.872;37.462;2022-07-23T09:23:56;99137.56;;;37.22;22.79
66385;BME280;53426;55.872;37.462;2022-07-23T09:26:28;99130.38;;;36.50;23.58
66385;BME280;53426;55.872;37.462;2022-07-23T09:34:16;99140.78;;;40.11;20.10
66385;BME280;53426;55.872;37.462;2022-07-23T09:36:43;99089.44;;;37.99;21.37
66385;BME280;53426;55.872;37.462;2022-07-23T09:39:10;99138.75;;;37.52;22.40
66385;BME280;53426;55.872;37.462;2022-07-23T09:41:38;99140.22;;;36.92;22.97
66385;BME280;53426;55.872;37.462;2022-07-23T09:44:19;99131.53;;;36.84;23.30
66385;BME280;53426;55.872;37.462;2022-07-23T09:46:47;99138.97;;;38.18;22.29
66385;BME280;53426;55.872;37.462;2022-07-23T09:49:15;99135.25;;;39.13;21.30
66385;BME280;53426;55.872;37.462;2022-07-23T09:51:56;99135.75;;;40.43;20.27
66385;BME280;53426;55.872;37.462;2022-07-23T09:56:55;99136.75;;;41.18;19.22
66385;BME280;53426;55.872;37.462;2022-07-23T09:59:27;99132.88;;;40.69;18.66
66385;BME280;53426;55.872;37.462;2022-07-23T10:01:56;99125.66;;;40.38;19.26
66385;BME280;53426;55.872;37.462;2022-07-23T10:04:24;99121.06;;;38.15;21.10
66385;BME280;53426;55.872;37.462;2022-07-23T10:07:09;99128.84;;;37.51;22.13
66385;BME280;53426;55.872;37.462;2022-07-23T10:09:55;99116.53;;;37.13;23.12
66385;BME280;53426;55.872;37.462;2022-07-23T10:12:43;99118.44;;;36.90;23.49
66385;BME280;53426;55.872;37.462;2022-07-23T10:15:28;99116.28;;;36.65;23.55
66385;BME280;53426;55.872;37.462;2022-07-23T10:17:54;99104.00;;;38.22;21.71
66385;BME280;53426;55.872;37.462;2022-07-23T10:20:20;99118.91;;;39.81;20.59
66385;BME280;53426;55.872;37.462;2022-07-23T10:23:00;99113.38;;;41.19;18.80
66385;BME280;53426;55.872;37.462;2022-07-23T10:25:41;99121.97;;;42.16;18.55
66385;BME280;53426;55.872;37.462;2022-07-23T10:34:21;99114.66;;;43.00;17.64
66385;BME280;53426;55.872;37.462;2022-07-23T10:36:58;99103.16;;;42.74;17.47
66385;BME280;53426;55.872;37.462;2022-07-23T10:39:31;99101.75;;;42.55;17.05
66385;BME280;53426;55.872;37.462;2022-07-23T10:42:17;99092.34;;;43.12;17.22
66385;BME280;53426;55.872;37.462;2022-07-23T10:44:48;99094.94;;;42.53;17.12
66385;BME280;53426;55.872;37.462;2022-07-23T10:47:28;99087.06;;;42.95;17.01
66385;BME280;53426;55.872;37.462;2022-07-23T10:58:02;99073.84;;;38.68;20.89
66385;BME280;53426;55.872;37.462;2022-07-23T11:00:29;99078.28;;;37.06;22.80
66385;BME280;53426;55.872;37.462;2022-07-23T11:02:58;99077.31;;;36.17;23.91
66385;BME280;53426;55.872;37.462;2022-07-23T11:05:26;99069.16;;;35.19;24.63
66385;BME280;53426;55.872;37.462;2022-07-23T11:24:15;99067.44;;;32.91;27.99
66385;BME280;53426;55.872;37.462;2022-07-23T11:26:54;99064.06;;;32.65;28.78
66385;BME280;53426;55.872;37.462;2022-07-23T11:34:33;99057.41;;;32.27;29.48
66385;BME280;53426;55.872;37.462;2022-07-23T11:37:03;99035.69;;;31.71;30.15
66385;BME280;53426;55.872;37.462;2022-07-23T11:39:33;99043.94;;;31.41;29.64
66385;BME280;53426;55.872;37.462;2022-07-23T11:42:00;99037.16;;;31.03;30.53
66385;BME280;53426;55.872;37.462;2022-07-23T11:44:33;99052.13;;;30.95;30.88
66385;BME280;53426;55.872;37.462;2022-07-23T11:47:02;99047.13;;;30.47;31.54
66385;BME280;53426;55.872;37.462;2022-07-23T11:49:28;99019.22;;;30.24;32.07
66385;BME280;53426;55.872;37.462;2022-07-23T11:52:12;99055.38;;;30.67;31.39
66385;BME280;53426;55.872;37.462;2022-07-23T11:54:56;99043.38;;;30.83;31.17
66385;BME280;53426;55.872;37.462;2022-07-23T11:57:34;99044.19;;;30.84;31.75
66385;BME280;53426;55.872;37.462;2022-07-23T12:02:42;99043.81;;;30.40;31.96
66385;BME280;53426;55.872;37.462;2022-07-23T12:05:13;99021.38;;;30.22;31.87
66385;BME280;53426;55.872;37.462;2022-07-23T12:07:41;99006.13;;;30.31;32.19
66385;BME280;53426;55.872;37.462;2022-07-23T12:10:19;99021.50;;;30.53;32.27
66385;BME280;53426;55.872;37.462;2022-07-23T12:12:51;99036.81;;;30.64;31.75
66385;BME280;53426;55.872;37.462;2022-07-23T12:15:20;99033.25;;;30.63;32.27
66385;BME280;53426;55.872;37.462;2022-07-23T12:17:49;99037.63;;;30.59;31.64
66385;BME280;53426;55.872;37.462;2022-07-23T12:20:19;99029.97;;;30.66;31.98
66385;BME280;53426;55.872;37.462;2022-07-23T12:22:47;99028.31;;;30.60;32.50
66385;BME280;53426;55.872;37.462;2022-07-23T12:25:28;99023.72;;;30.76;31.83
66385;BME280;53426;55.872;37.462;2022-07-23T12:28:11;99022.34;;;30.89;31.21
66385;BME280;53426;55.872;37.462;2022-07-23T12:30:48;99013.31;;;30.78;30.67
66385;BME280;53426;55.872;37.462;2022-07-23T12:33:27;99014.69;;;30.86;31.38
66385;BME280;53426;55.872;37.462;2022-07-23T12:35:55;98999.63;;;30.53;31.59
66385;BME280;53426;55.872;37.462;2022-07-23T12:38:23;99009.47;;;30.49;31.91
66385;BME280;53426;55.872;37.462;2022-07-23T12:40:57;99009.50;;;30.59;32.04
66385;BME280;53426;55.872;37.462;2022-07-23T12:43:26;99010.56;;;30.63;32.13
66385;BME280;53426;55.872;37.462;2022-07-23T12:46:02;99013.03;;;30.54;32.28
66385;BME280;53426;55.872;37.462;2022-07-23T12:56:11;98961.38;;;30.63;31.70
66385;BME280;53426;55.872;37.462;2022-07-23T13:01:25;98958.59;;;30.32;31.68
66385;BME280;53426;55.872;37.462;2022-07-23T13:04:00;98891.28;;;29.81;31.92
66385;BME280;53426;55.872;37.462;2022-07-23T13:06:36;98966.25;;;30.35;31.85
66385;BME280;53426;55.872;37.462;2022-07-23T13:09:10;98995.47;;;30.40;31.33
66385;BME280;53426;55.872;37.462;2022-07-23T13:11:38;98992.72;;;30.20;32.32
66385;BME280;53426;55.872;37.462;2022-07-23T13:14:05;98939.09;;;29.83;32.14
66385;BME280;53426;55.872;37.462;2022-07-23T13:16:31;98913.63;;;29.68;32.27
66385;BME280;53426;55.872;37.462;2022-07-23T13:18:59;98876.97;;;29.38;33.21
66385;BME280;53426;55.872;37.462;2022-07-23T13:21:26;98994.88;;;30.13;32.82
66385;BME280;53426;55.872;37.462;2022-07-23T13:23:53;98985.31;;;30.10;32.45
66385;BME280;53426;55.872;37.462;2022-07-23T13:26:19;98939.88;;;29.79;31.97
66385;BME280;53426;55.872;37.462;2022-07-23T13:28:46;98986.44;;;30.24;32.24
66385;BME280;53426;55.872;37.462;2022-07-23T13:31:12;98978.25;;;30.40;32.18
66385;BME280;53426;55.872;37.462;2022-07-23T13:33:39;98971.44;;;30.37;32.30
66385;BME280;53426;55.872;37.462;2022-07-23T13:36:05;98981.56;;;30.42;32.17
66385;BME280;53426;55.872;37.462;2022-07-23T13:38:31;98976.34;;;30.40;33.02
66385;BME280;53426;55.872;37.462;2022-07-23T13:41:22;98975.88;;;30.48;32.28
66385;BME280;53426;55.872;37.462;2022-07-23T13:44:00;98977.44;;;30.34;32.18
66385;BME280;53426;55.872;37.462;2022-07-23T13:46:26;98956.38;;;30.14;32.46
66385;BME280;53426;55.872;37.462;2022-07-23T13:48:53;98979.06;;;30.30;32.03
66385;BME280;53426;55.872;37.462;2022-07-23T13:51:18;98895.63;;;29.62;32.51
66385;BME280;53426;55.872;37.462;2022-07-23T13:53:45;98969.72;;;30.01;32.62
66385;BME280;53426;55.872;37.462;2022-07-23T13:56:11;98934.38;;;29.74;32.51
66385;BME280;53426;55.872;37.462;2022-07-23T13:58:37;98873.88;;;29.25;32.94
66385;BME280;53426;55.872;37.462;2022-07-23T14:01:04;98954.06;;;29.81;33.35
66385;BME280;53426;55.872;37.462;2022-07-23T14:03:30;98943.69;;;29.78;33.45
66385;BME280;53426;55.872;37.462;2022-07-23T14:06:16;98969.19;;;30.04;33.26
66385;BME280;53426;55.872;37.462;2022-07-23T14:08:41;98939.63;;;29.85;33.24
66385;BME280;53426;55.872;37.462;2022-07-23T14:11:07;98912.31;;;29.80;33.27
66385;BME280;53426;55.872;37.462;2022-07-23T14:13:33;98948.44;;;29.98;33.11
66385;BME280;53426;55.872;37.462;2022-07-23T14:15:59;98962.09;;;30.13;33.13
66385;BME280;53426;55.872;37.462;2022-07-23T14:18:25;98887.13;;;29.58;33.95
66385;BME280;53426;55.872;37.462;2022-07-23T14:20:51;98972.47;;;30.06;33.78
66385;BME280;53426;55.872;37.462;2022-07-23T14:23:16;98899.66;;;29.44;32.95
66385;BME280;53426;55.872;37.462;2022-07-23T14:25:42;98962.84;;;29.88;33.18
66385;BME280;53426;55.872;37.462;2022-07-23T14:28:08;98970.25;;;29.92;33.00
66385;BME280;53426;55.872;37.462;2022-07-23T14:30:34;98917.44;;;29.62;33.52
66385;BME280;53426;55.872;37.462;2022-07-23T14:33:00;98954.13;;;29.96;33.52
66385;BME280;53426;55.872;37.462;2022-07-23T14:35:26;98928.44;;;29.82;32.90
66385;BME280;53426;55.872;37.462;2022-07-23T14:37:52;98900.78;;;29.58;33.37
66385;BME280;53426;55.872;37.462;2022-07-23T14:40:18;98881.06;;;29.41;33.06
66385;BME280;53426;55.872;37.462;2022-07-23T14:42:43;98939.91;;;29.89;33.21
66385;BME280;53426;55.872;37.462;2022-07-23T14:45:11;98938.25;;;29.83;33.52
66385;BME280;53426;55.872;37.462;2022-07-23T14:47:36;98951.81;;;29.68;33.71
66385;BME280;53426;55.872;37.462;2022-07-23T14:50:04;98904.78;;;29.35;33.50
66385;BME280;53426;55.872;37.462;2022-07-23T14:52:30;98955.94;;;29.65;33.21
66385;BME280;53426;55.872;37.462;2022-07-23T14:54:58;98916.53;;;29.41;33.45
66385;BME280;53426;55.872;37.462;2022-07-23T14:57:24;98895.97;;;29.23;34.00
66385;BME280;53426;55.872;37.462;2022-07-23T14:59:50;98863.13;;;28.98;33.69
66385;BME280;53426;55.872;37.462;2022-07-23T15:02:16;98884.34;;;28.91;33.80
66385;BME280;53426;55.872;37.462;2022-07-23T15:04:42;98909.78;;;29.06;33.66
66385;BME280;53426;55.872;37.462;2022-07-23T15:07:07;98925.38;;;29.16;34.23
66385;BME280;53426;55.872;37.462;2022-07-23T15:09:33;98908.66;;;29.02;33.67
66385;BME280;53426;55.872;37.462;2022-07-23T15:11:59;98919.00;;;28.95;34.63
66385;BME280;53426;55.872;37.462;2022-07-23T15:14:25;98935.03;;;28.92;33.93
66385;BME280;53426;55.872;37.462;2022-07-23T15:16:51;98921.94;;;28.89;34.42
66385;BME280;53426;55.872;37.462;2022-07-23T15:19:16;98933.47;;;29.01;34.11
66385;BME280;53426;55.872;37.462;2022-07-23T15:21:42;98885.63;;;28.78;33.56
66385;BME280;53426;55.872;37.462;2022-07-23T15:24:08;98901.72;;;28.80;34.35
66385;BME280;53426;55.872;37.462;2022-07-23T15:26:58;98940.63;;;29.12;34.14
66385;BME280;53426;55.872;37.462;2022-07-23T15:29:24;98923.91;;;28.98;33.54
66385;BME280;53426;55.872;37.462;2022-07-23T15:31:50;98905.56;;;28.84;33.73
66385;BME280;53426;55.872;37.462;2022-07-23T15:34:17;98949.03;;;29.05;34.09